Flight Track Log - Related Links

Times and Time Zones

All times are in EST time to prevent confusion due to time zone crossing. See the PDC2808 flight status page for this flight to view local times or setup timezone preferences in your user account.

Time Position Orientation Groundspeed Altitude Reporting Facility
EST Latitude Longitude Course Direction KTS MPH feet Rate Location/Type
Thu 12:44:00 AM 44.6595 129.1820 296° West  Level Estimated
Thu 12:45:00 AM 44.6787 129.1266 296° West  Level Estimated
Thu 12:46:00 AM 44.6979 129.0711 296° West  Level Estimated
Thu 12:47:00 AM 44.7171 129.0156 296° West  Level Estimated
Thu 12:48:00 AM 44.7362 128.9600 296° West  Level Estimated
Thu 12:49:00 AM 44.7553 128.9045 296° West  Level Estimated
Thu 12:50:00 AM 44.7744 128.8488 296° West  Level Estimated
Thu 12:51:00 AM 44.7935 128.7932 296° West  Level Estimated
Thu 12:52:00 AM 44.8126 128.7375 296° West  Level Estimated
Thu 12:53:00 AM 44.8316 128.6818 296° West  Level Estimated
Thu 12:54:00 AM 44.8506 128.6260 296° West  Level Estimated
Thu 12:55:00 AM 44.8695 128.5702 296° West  Level Estimated
Thu 12:56:00 AM 44.8885 128.5144 296° West  Level Estimated
Thu 12:57:00 AM 44.9074 128.4585 296° West  Level Estimated
Thu 12:58:00 AM 44.9263 128.4026 296° West  Level Estimated
Thu 12:59:00 AM 44.9451 128.3466 295° West  Level Estimated
Thu 01:00:00 AM 44.9639 128.2907 295° West  Level Estimated
Thu 01:01:00 AM 44.9827 128.2346 295° West  Level Estimated
Thu 01:02:00 AM 45.0015 128.1786 295° West  Level Estimated
Thu 01:03:00 AM 45.0203 128.1225 295° West  Level Estimated
Thu 01:04:00 AM 45.0390 128.0664 295° West  Level Estimated
Thu 01:05:00 AM 45.0577 128.0102 295° West  Level Estimated
Thu 01:06:00 AM 45.0763 127.9540 295° West  Level Estimated
Thu 01:07:00 AM 45.0950 127.8978 295° West  Level Estimated
Thu 01:08:00 AM 45.1136 127.8415 295° West  Level Estimated
Thu 01:09:00 AM 45.1322 127.7852 295° West  Level Estimated
Thu 01:10:00 AM 45.1507 127.7288 295° West  Level Estimated
Thu 01:11:00 AM 45.1692 127.6724 295° West  Level Estimated
Thu 01:12:00 AM 45.1877 127.6160 295° West  Level Estimated
Thu 01:13:00 AM 45.2062 127.5595 295° West  Level Estimated
Thu 01:14:00 AM 45.2246 127.5031 295° West  Level Estimated
Thu 01:15:00 AM 45.2430 127.4465 295° West  Level Estimated
Thu 01:16:00 AM 45.2614 127.3900 295° West  Level Estimated
Thu 01:17:00 AM 45.2798 127.3333 295° West  Level Estimated
Thu 01:18:00 AM 45.2981 127.2767 295° West  Level Estimated
Thu 01:19:00 AM 45.3164 127.2200 295° West  Level Estimated
Thu 01:20:00 AM 45.3347 127.1633 295° West  Level Estimated
Thu 01:21:00 AM 45.3530 127.1066 295° West  Level Estimated
Thu 01:22:00 AM 45.3712 127.0498 295° West  Level Estimated
Thu 01:23:00 AM 45.3894 126.9929 295° West  Level Estimated
Thu 01:24:00 AM 45.4075 126.9361 294° West  Level Estimated
Thu 01:25:00 AM 45.4257 126.8792 294° West  Level Estimated
Thu 01:26:00 AM 45.4437 126.8222 294° West  Level Estimated
Thu 01:27:00 AM 45.4618 126.7653 294° West  Level Estimated
Thu 01:28:00 AM 45.4799 126.7083 294° West  Level Estimated
Thu 01:29:00 AM 45.4979 126.6512 294° West  Level Estimated
Thu 01:30:00 AM 45.5159 126.5941 294° West  Level Estimated
Thu 01:31:00 AM 45.5339 126.5370 294° West  Level Estimated
Thu 01:32:00 AM 45.5518 126.4799 294° West  Level Estimated
Thu 01:33:00 AM 45.5697 126.4227 294° West  Level Estimated
Thu 01:34:00 AM 45.5876 126.3654 294° West  Level Estimated
Thu 01:35:00 AM 45.6054 126.3082 294° West  Level Estimated
Thu 01:36:00 AM 45.6232 126.2509 294° West  Level Estimated
Thu 01:37:00 AM 45.6234 126.2503 294° West  Level Estimated
Thu 01:38:00 AM 45.6234 126.2503 335° Northwest  Level Estimated
Thu 01:39:00 AM 45.6234 126.2503 335° Northwest  Level Estimated
Thu 01:40:00 AM 45.6234 126.2503 335° Northwest  Level Estimated
Thu 01:41:00 AM 45.6234 126.2503 335° Northwest  Level Estimated
Thu 01:42:00 AM 45.6234 126.2503 335° Northwest  Level Estimated
Thu 01:43:00 AM 45.6234 126.2503 335° Northwest  Level Estimated
Thu 01:44:00 AM 45.6234 126.2503 335° Northwest  Level Estimated
Thu 01:45:00 AM 45.6234 126.2503 335° Northwest  Level Estimated
Thu 01:46:00 AM 45.6234 126.2503 335° Northwest  Level Estimated
Thu 01:47:00 AM 45.6234 126.2503 335° Northwest  Level Estimated
Thu 01:48:00 AM 45.6234 126.2503 335° Northwest  Level Estimated

Login

Don't have an account? Register now (free) for customized features, flight alerts, and more!